Nearby METAR Reports

 

YAMB - Amberley, Australia
Distance from station: NW 41km
Updated: 31/01/2023 17:00
Light rain, Showers, Mostly cloudy
Light rain, Showers, Mostly cloudy
 Wind from E
Wind: E 13 km/h
Temperature: 28°C
Heat Index: 31°C
Dew Point: 23°C
Humidity: 74%
Barometer: 999 hPa
Summary: Light rain, Showers
Clouds: Mostly Cloudy
Visibility: 10 km
Cloud details: Few Clouds 975 m
Mostly Cloudy 1494 m
Mostly Cloudy 2438 m
2023/01/31 07:00 YAMB 310700Z 08007KT 9999 -SHRA FEW032 BKN049 BKN080 28/23 Q0999
YBBN - Brisbane Intl Ar, Australia
Distance from station: N 55km
Updated: 31/01/2023 17:00
Clear
Clear
 Wind from NNE
Wind: NNE 37 km/h
Temperature: 28°C
Heat Index: 32°C
Dew Point: 24°C
Humidity: 79%
Barometer: 1000 hPa
Summary: Clear
Visibility: greater than 10 km
2023/01/31 07:00 YBBN 310700Z 02020KT CAVOK 28/24 Q1000 SCT069 BKN081
 
YBCG - Coolangatta Aws, Australia
Distance from station: SE 57km
Updated: 31/01/2023 17:00
Overcast
Overcast
 Wind from N
Wind: N 13 km/h
Temperature: 27°C
Heat Index: 30°C
Dew Point: 23°C
Humidity: 79%
Barometer: 1000 hPa
Clouds: Overcast
Visibility: 10 km
Cloud details: Overcast 1250 m
2023/01/31 07:00 YBCG 310700Z AUTO 01007KT 9999 // OVC041 27/23 Q1000 RF00.0/000.0 DL-SE/DL-S/DL-SW/DL-NW
YLIS - Lismore Arpt, Australia
Distance from station: SSE 110km
Updated: 16/11/2022 10:09
NOT Current
Mostly Cloudy
Mostly Cloudy
 Wind from W
Wind: W 28 km/h
Temperature: 27°C
Dew Point: 11°C
Humidity: 37%
Barometer: 1007 hPa
Clouds: Mostly Cloudy
Visibility: 10 km
Cloud details: Mostly Cloudy 2195 m
2022/11/16 00:09 YLIS 160009Z AUTO 26015KT 9999 // BKN072 27/11 Q1007
 
YCAS - Casino Airport, Australia
Distance from station: S 113km
Updated: 14/11/2022 13:33
NOT Current

 Wind from N
Wind: N 28 km/h, Gust: 48 km/h
Temperature: 31°C
Heat Index: 33°C
Dew Point: 19°C
Humidity: 49%
Barometer: 1004 hPa
2022/11/14 03:33 YCAS 140333Z AUTO 35015G26KT //// // ////// 31/19 Q1004
YBNA - Ballina Byron G., Australia
Distance from station: SSE 119km
Updated: 12/05/2022 10:00
NOT Current
Mostly Cloudy
Mostly Cloudy
 Wind from ENE
Wind: ENE 28 km/h
Temperature: 23°C
Dew Point: 17°C
Humidity: 69%
Barometer: 1020 hPa
Clouds: Mostly Cloudy
Visibility: 10 km
Cloud details: Partly Cloudy 945 m
Mostly Cloudy 1158 m
Mostly Cloudy 1494 m
2022/05/12 00:00 YBNA 120000Z AUTO 07015KT 9999 // SCT031 BKN038 BKN049 23/17 Q1020
 
YBOK - Oakey (army/Civ), Australia
Distance from station: WNW 139km
Updated: 12/05/2022 10:00
NOT Current
Light rain, Overcast
Light rain, Overcast
 Wind from E
Wind: E 20 km/h
Temperature: 19°C
Dew Point: 18°C
Humidity: 94%
Barometer: 1018 hPa
Summary: Light Rain
Clouds: Overcast
Visibility: 3 km
Cloud details: Mostly Cloudy 244 m
Overcast 671 m
2022/05/12 00:00 YBOK 120000Z 09011KT 3000 -RA BKN008 OVC022 19/18 Q1018